Agana Heights, GU

2:03 PM ChST on April 02, 2015 (GMT +1000)
Maite | | Change Station
CLOSE
Current Station
Personal Weather Station
Location: Maite, GU
Elevation: 140 ft
Nearby Weather Stations

Elev 140 ft 13.48 °N, 144.76 °E | Updated 4 seconds ago

Scattered Clouds
Scattered Clouds
85.1 °F
Feels Like 95 °F
N
8.0
Wind Variable Wind from East
Gusts 17.0 mph

Today
High -- | Low -- °F
--% Chance of Precip.
Yesterday
High -- | Low -- °F
Precip. -- in
6:16 AM 6:32 PM
Waxing Gibbous, 95% visible
Pressure 29.81 in
Visibility 10.0 miles
Clouds Scattered Clouds 2200 ft
Scattered Clouds 3100 ft
Scattered Clouds 4900 ft
Heat Index 95 °F
Dew Point 77 °F
Humidity 76%
Rainfall 0.04 in
Snow Depth Not available.
UV 12.9 out of 12
Pollen Not available.
Air Quality Not available.
Flu Activity Not available.
METAR PGUM 020354Z 09012KT 10SM SCT022 SCT031 SCT049 29/23 A2983 RMK AO2 SLP094 T02940233

More Conditions Fewer Conditions

Pressure 29.81 in
Visibility 10.0 miles
Clouds Scattered Clouds 2200 ft
Scattered Clouds 3100 ft
Scattered Clouds 4900 ft
Heat Index 95 °F
Dew Point 77 °F
Humidity 76%
Rainfall 0.04 in
Snow Depth Not available.
UV 12.9 out of 12
Pollen Not available.
Air Quality Not available.
Flu Activity Not available.
METAR PGUM 020354Z 09012KT 10SM SCT022 SCT031 SCT049 29/23 A2983 RMK AO2 SLP094 T02940233

More Conditions Fewer Conditions

10-Day Weather Forecast

Almanac

Astronomy

Apr. 02, 2015 Rise Set
Actual Time
Civil Twilight
Nautical Twilight
Astronomical Twilight
Moon
Length of Visible Light
Length of Day
Tomorrow will be .
, % of the Moon is Illuminated

Today's Extremes

State Highs State Lows

Community

WunderPhotos

Upload Photos

1,810,188 photos uploaded!

WunderBlogs® & News

Nearby

Air Quality

  Air Quality AQ Index Pollutant
Not available.

Snow Depth

Station Depth Elevation

Earthquake Activity

City Distance Mag. Time & Date
Minimum magnitude displayed is 2.5.

Coastal Water Temperatures

Place Temperature

Stations

Nearby Weather Stations

Station Location Temp. Windchill Dew Point Humidity Wind Precip. Elev Updated Type